Weather observations for the past three days for
Sault Ste Marie, Chippewa County International Airport
Metric (Imperial)
Date Time (edt) Wind (kph) Vis. (km) Weather Sky Cond. Temperature (ºC) Relative Humidity Wind Chill (°C) Heat Index (°C) Pressure Precipitation (cm)
Air Dwpt 6 hour altimeter (cm) sea level (mb) 1 hr 3 hr 6 hr
Max. Min.
30 23:56 SE 11 16.09 Overcast FEW003 OVC019 17.8 17.8 100% 76.25 1016.5
30 22:56 E 13 16.09 Fair CLR 17.2 17.2 100% 76.25 1016.5
30 21:56 E 11 16.09 Fair CLR 17.8 17.2 96% 76.25 1016.3
30 20:56 E 9 16.09 Mostly Cloudy BKN014 18.3 17.2 93% 76.25 1016.3
30 19:56 E 13 16.09 Overcast OVC012 18.9 17.8 19.4 18.3 93% 76.23 1015.8
30 18:56 E 13 16.09 NULL NULL 19.4 17.8 91% 76.25 1016.4
30 17:56 SE 15 16.09 Overcast BKN008 OVC014 18.9 17.8 93% 76.25 1016.3
30 16:56 E 20 16.09 Overcast OVC004 18.9 17.2 90% 76.23 1015.9
30 15:56 E 20 12.87 Overcast OVC004 18.3 17.8 97% 76.23 1015.9
30 14:56 E 19 16.09 Overcast OVC004 18.3 17.8 97% 76.25 1016.2
30 12:56 SE 13 16.09 Overcast OVC006 18.3 17.8 97% 76.25 1016.2
30 11:56 SE 17 16.09 Overcast OVC004 17.8 17.2 96% 76.25 1016.4
30 09:56 E 13 2.82 Light Rain Fog/Mist OVC004 17.2 17.2 100% 76.25 1016.3 0.13
30 08:56 E 13 6.44 Light Rain Fog/Mist OVC004 17.2 17.2 100% 76.25 1016.2
30 07:56 SE 17 16.09 Overcast BKN031 BKN065 OVC080 17.2 16.7 18.3 17.2 97% 76.2 1015.6
30 06:56 SE 17 14.48 Overcast FEW002 BKN035 OVC048 17.2 17.2 100% 76.2 1015.5
30 05:56 E 11 12.87 Overcast BKN004 BKN041 OVC048 17.2 17.2 100% 76.23 1015.9
30 04:56 E 7 16.09 Overcast OVC060 17.8 17.2 96% 76.25 1015.9
30 03:56 SE 7 16.09 Overcast FEW008 SCT049 OVC060 17.8 17.2 96% 76.25 1016.2
30 02:56 S 7 16.09 Overcast BKN008 BKN042 OVC075 17.8 17.8 100% 76.28 1016.5
30 01:56 SW 7 16.09 Overcast OVC012 18.3 17.8 20 18.3 97% 76.33 1017.3 0.03 0.05
30 00:56 SW 13 16.09 Light Rain OVC012 18.3 17.8 97% 76.35 1017.3
29 23:56 SW 6 16.09 Overcast FEW020 OVC036 18.3 17.8 97% 76.33 1017.1 0.03
29 22:56 Vrbl 6 16.09 Light Rain BKN032 OVC080 18.9 17.8 93% 76.33 1017.2
29 21:56 SW 7 16.09 Light Rain OVC060 18.9 17.8 93% 76.33 1017.2
29 20:56 SW 7 16.09 Overcast BKN038 OVC100 19.4 17.2 87% 76.28 1016.8
29 19:56 W 13 16.09 Fair CLR 20 17.2 24.4 20 84% 76.25 1016.4
29 18:56 W 19 G 26 16.09 Mostly Cloudy BKN120 21.1 16.7 76% 76.25 1016.4
29 17:56 SW 13 16.09 Fair CLR 21.7 16.7 73% 76.25 1016.3
29 16:56 S 11 16.09 Fair CLR 23.3 17.2 69% 76.25 1016.1
29 15:56 SW 9 16.09 Fair CLR 23.9 16.1 62% 25 76.28 1016.5
29 14:56 Vrbl 6 16.09 Fair CLR 22.8 16.7 69% 76.3 1017.1
29 13:56 Vrbl 7 16.09 Fair CLR 23.3 15.6 23.3 13.3 62% 76.3 1017.1
29 12:56 W 13 16.09 A Few Clouds FEW025 22.2 16.1 68% 76.33 1017.6
29 11:56 NW 13 16.09 Partly Cloudy SCT070 21.1 16.7 76% 76.35 1017.8
29 10:56 NW 15 16.09 A Few Clouds FEW011 19.4 16.7 84% 76.35 1017.7
29 09:56 W 6 16.09 Overcast OVC007 17.2 15.6 90% 76.35 1017.9
29 08:56 Calm 16.09 Mostly Cloudy BKN012 15.6 14.4 93% 76.33 1017.5
29 07:56 Calm 16.09 Fair CLR 13.3 12.8 14.4 11.7 97% 76.35 1017.8
29 06:56 N 7 16.09 Partly Cloudy SCT075 12.2 11.7 97% 76.33 1017.7
29 05:56 E 6 16.09 Mostly Cloudy SCT070 BKN095 13.3 12.2 93% 76.3 1017.1
29 04:56 SE 9 16.09 Overcast FEW060 OVC090 13.9 12.8 93% 76.35 1017.7
29 03:56 SE 7 16.09 Mostly Cloudy SCT055 SCT070 BKN095 13.3 12.2 93% 76.35 1017.9
29 02:56 SE 6 16.09 Mostly Cloudy BKN090 12.8 12.2 96% 76.4 1018.5
29 01:56 SE 7 16.09 Mostly Cloudy BKN085 13.3 12.2 19.4 12.2 93% 76.45 1019.0
29 00:56 SE 9 16.09 Fair CLR 12.2 11.7 97% 76.45 1019.3
28 23:56 SE 9 16.09 Fair CLR 12.8 11.1 90% 76.48 1019.6
28 22:56 S 9 16.09 A Few Clouds FEW070 14.4 11.7 84% 76.5 1019.9
28 21:56 S 9 16.09 Fair CLR 14.4 11.7 84% 76.5 1019.8
28 20:56 Calm 16.09 Fair CLR 16.7 10.6 67% 76.5 1019.8
28 19:56 Calm 16.09 Fair CLR 20 10.6 21.7 20 55% 76.48 1019.6
28 18:56 Calm 16.09 Partly Cloudy SCT045 SCT080 21.1 10 49% 76.5 1019.7
28 17:56 NE 9 16.09 Mostly Cloudy BKN055 BKN075 21.1 9.4 47% 76.5 1019.9
28 16:56 Vrbl 9 16.09 Overcast FEW046 OVC055 20 8.9 49% 76.5 1020.0
28 15:56 N 9 16.09 Mostly Cloudy BKN050 20.6 9.4 49% 76.53 1020.1
28 14:56 Vrbl 7 16.09 A Few Clouds FEW055 21.1 8.3 44% 76.56 1020.7
28 13:56 Vrbl 6 16.09 Fair CLR 21.1 8.3 21.1 8.9 44% 76.58 1021.2
28 12:56 NW 11 16.09 A Few Clouds FEW041 20 7.8 45% 76.63 1021.7
28 11:56 N 13 16.09 Fair CLR 18.3 9.4 56% 76.66 1021.8
28 10:56 Calm 16.09 Fair CLR 17.2 10 63% 76.66 1021.9
28 09:56 W 7 16.09 Fair CLR 15 12.8 87% 76.66 1021.7
28 08:56 W 6 16.09 A Few Clouds FEW002 11.1 11.1 100% 76.63 1021.8
28 07:56 W 9 0.40 Fog OVC002 9.4 9.4 10.6 8.3 100% 8 76.61 1021.4
28 06:56 W 9 6.44 Fog/Mist CLR 8.9 8.9 100% 8 76.56 1020.8
28 05:56 W 6 16.09 Overcast OVC080 9.4 9.4 100% 76.5 1020.0
28 04:56 W 9 16.09 Overcast SCT002 OVC080 10 9.4 96% 9 76.5 1019.7
28 03:56 W 9 12.87 A Few Clouds FEW002 8.9 8.9 100% 8 76.48 1019.5
28 02:56 W 7 16.09 Fair CLR 9.4 9.4 100% 9 76.45 1019.1
28 01:56 Calm 16.09 Fair CLR 10.6 10 16.1 10 96% 76.45 1019.0
28 00:56 W 7 16.09 Fair CLR 10.6 10 96% 76.4 1018.7
Date Time (edt) Wind (kph) Vis. (km) Weather Sky Cond. Air Dwpt Max. Min. Relative Humidity Wind Chill (°C) Heat Index (°C) altimeter (cm) sea level (mb) 1 hr 3 hr 6 hr
6 hour
Temperature (ºC) Pressure Precipitation (cm)